sensor_id;sensor_type;location;lat;lon;timestamp;P1;durP1;ratioP1;P2;durP2;ratioP2
37847;SDS011;23688;33.130;-117.188;2023-01-04T00:01:31;2.10;;;0.82;;
37847;SDS011;23688;33.130;-117.188;2023-01-04T00:03:59;4.72;;;0.57;;
37847;SDS011;23688;33.130;-117.188;2023-01-04T00:06:25;1.40;;;0.50;;
37847;SDS011;23688;33.130;-117.188;2023-01-04T00:08:52;1.45;;;0.60;;
37847;SDS011;23688;33.130;-117.188;2023-01-04T00:11:19;3.22;;;0.63;;
37847;SDS011;23688;33.130;-117.188;2023-01-04T00:13:49;2.72;;;1.30;;
37847;SDS011;23688;33.130;-117.188;2023-01-04T00:16:20;3.55;;;1.38;;
37847;SDS011;23688;33.130;-117.188;2023-01-04T00:18:48;3.25;;;2.08;;
37847;SDS011;23688;33.130;-117.188;2023-01-04T00:21:20;2.40;;;0.90;;
37847;SDS011;23688;33.130;-117.188;2023-01-04T00:23:50;4.97;;;2.50;;
37847;SDS011;23688;33.130;-117.188;2023-01-04T00:26:19;1.10;;;0.88;;
37847;SDS011;23688;33.130;-117.188;2023-01-04T00:28:53;1.80;;;0.80;;
37847;SDS011;23688;33.130;-117.188;2023-01-04T00:31:27;1.00;;;0.60;;
37847;SDS011;23688;33.130;-117.188;2023-01-04T00:33:55;2.05;;;0.73;;
37847;SDS011;23688;33.130;-117.188;2023-01-04T00:36:22;1.75;;;0.73;;
37847;SDS011;23688;33.130;-117.188;2023-01-04T00:38:49;1.77;;;0.90;;
37847;SDS011;23688;33.130;-117.188;2023-01-04T00:41:35;0.50;;;0.50;;
37847;SDS011;23688;33.130;-117.188;2023-01-04T00:44:10;1.77;;;0.60;;
37847;SDS011;23688;33.130;-117.188;2023-01-04T00:46:37;0.95;;;0.40;;
37847;SDS011;23688;33.130;-117.188;2023-01-04T00:49:04;3.67;;;0.55;;
37847;SDS011;23688;33.130;-117.188;2023-01-04T00:51:32;0.93;;;0.60;;
37847;SDS011;23688;33.130;-117.188;2023-01-04T00:54:00;1.00;;;0.70;;
37847;SDS011;23688;33.130;-117.188;2023-01-04T00:56:29;1.05;;;0.63;;
37847;SDS011;23688;33.130;-117.188;2023-01-04T00:58:56;1.17;;;0.85;;
37847;SDS011;23688;33.130;-117.188;2023-01-04T01:01:25;0.70;;;0.68;;
37847;SDS011;23688;33.130;-117.188;2023-01-04T01:03:54;0.50;;;0.50;;
37847;SDS011;23688;33.130;-117.188;2023-01-04T01:06:21;0.75;;;0.60;;
37847;SDS011;23688;33.130;-117.188;2023-01-04T01:08:49;0.70;;;0.60;;
37847;SDS011;23688;33.130;-117.188;2023-01-04T01:11:16;1.48;;;0.70;;
37847;SDS011;23688;33.130;-117.188;2023-01-04T01:13:43;0.90;;;0.90;;
37847;SDS011;23688;33.130;-117.188;2023-01-04T01:16:14;1.58;;;0.82;;
37847;SDS011;23688;33.130;-117.188;2023-01-04T01:18:43;0.80;;;0.80;;
37847;SDS011;23688;33.130;-117.188;2023-01-04T01:21:11;1.90;;;0.85;;
37847;SDS011;23688;33.130;-117.188;2023-01-04T01:23:43;1.13;;;0.80;;
37847;SDS011;23688;33.130;-117.188;2023-01-04T01:26:10;1.60;;;0.90;;
37847;SDS011;23688;33.130;-117.188;2023-01-04T01:28:40;1.58;;;1.25;;
37847;SDS011;23688;33.130;-117.188;2023-01-04T01:31:10;1.27;;;1.00;;
37847;SDS011;23688;33.130;-117.188;2023-01-04T01:33:41;1.73;;;1.05;;
37847;SDS011;23688;33.130;-117.188;2023-01-04T01:36:09;2.80;;;1.13;;
37847;SDS011;23688;33.130;-117.188;2023-01-04T01:38:36;1.40;;;1.10;;
37847;SDS011;23688;33.130;-117.188;2023-01-04T01:41:04;1.35;;;1.25;;
37847;SDS011;23688;33.130;-117.188;2023-01-04T01:43:48;2.88;;;1.30;;
37847;SDS011;23688;33.130;-117.188;2023-01-04T01:46:21;2.60;;;1.42;;
37847;SDS011;23688;33.130;-117.188;2023-01-04T01:48:48;1.92;;;1.02;;
37847;SDS011;23688;33.130;-117.188;2023-01-04T01:51:18;2.25;;;1.55;;
37847;SDS011;23688;33.130;-117.188;2023-01-04T01:53:47;1.50;;;1.37;;
37847;SDS011;23688;33.130;-117.188;2023-01-04T01:56:19;2.53;;;1.40;;
37847;SDS011;23688;33.130;-117.188;2023-01-04T01:58:47;4.03;;;2.67;;
37847;SDS011;23688;33.130;-117.188;2023-01-04T02:01:17;2.08;;;1.75;;
37847;SDS011;23688;33.130;-117.188;2023-01-04T02:03:44;2.35;;;1.58;;
37847;SDS011;23688;33.130;-117.188;2023-01-04T02:06:12;3.13;;;1.70;;
37847;SDS011;23688;33.130;-117.188;2023-01-04T02:08:42;3.65;;;1.73;;
37847;SDS011;23688;33.130;-117.188;2023-01-04T02:11:09;4.40;;;1.98;;
37847;SDS011;23688;33.130;-117.188;2023-01-04T02:13:36;3.25;;;2.03;;
37847;SDS011;23688;33.130;-117.188;2023-01-04T02:24:32;6.13;;;1.88;;
37847;SDS011;23688;33.130;-117.188;2023-01-04T02:27:30;4.63;;;1.63;;
37847;SDS011;23688;33.130;-117.188;2023-01-04T02:30:15;4.50;;;1.60;;
37847;SDS011;23688;33.130;-117.188;2023-01-04T02:36:20;1.77;;;1.27;;
37847;SDS011;23688;33.130;-117.188;2023-01-04T02:41:29;3.20;;;2.08;;
37847;SDS011;23688;33.130;-117.188;2023-01-04T02:44:24;3.13;;;1.55;;
37847;SDS011;23688;33.130;-117.188;2023-01-04T02:47:16;2.78;;;1.23;;
37847;SDS011;23688;33.130;-117.188;2023-01-04T02:50:36;1.63;;;0.90;;
37847;SDS011;23688;33.130;-117.188;2023-01-04T02:53:20;5.95;;;1.52;;
37847;SDS011;23688;33.130;-117.188;2023-01-04T02:56:17;8.00;;;1.27;;
37847;SDS011;23688;33.130;-117.188;2023-01-04T03:02:02;2.38;;;0.98;;
37847;SDS011;23688;33.130;-117.188;2023-01-04T03:14:03;3.70;;;1.15;;
37847;SDS011;23688;33.130;-117.188;2023-01-04T03:16:41;2.25;;;0.93;;
37847;SDS011;23688;33.130;-117.188;2023-01-04T03:19:10;1.65;;;0.80;;
37847;SDS011;23688;33.130;-117.188;2023-01-04T03:24:09;4.65;;;1.33;;
37847;SDS011;23688;33.130;-117.188;2023-01-04T03:27:00;1.48;;;0.63;;
37847;SDS011;23688;33.130;-117.188;2023-01-04T03:29:52;8.27;;;0.80;;
37847;SDS011;23688;33.130;-117.188;2023-01-04T03:35:42;1.23;;;0.95;;
37847;SDS011;23688;33.130;-117.188;2023-01-04T03:41:29;1.02;;;0.75;;
37847;SDS011;23688;33.130;-117.188;2023-01-04T03:47:30;1.58;;;0.52;;
37847;SDS011;23688;33.130;-117.188;2023-01-04T03:50:24;2.90;;;0.68;;
37847;SDS011;23688;33.130;-117.188;2023-01-04T03:53:00;1.33;;;0.52;;
37847;SDS011;23688;33.130;-117.188;2023-01-04T03:55:27;1.80;;;0.52;;
37847;SDS011;23688;33.130;-117.188;2023-01-04T03:57:55;1.73;;;0.60;;
37847;SDS011;23688;33.130;-117.188;2023-01-04T04:00:23;1.17;;;0.52;;
37847;SDS011;23688;33.130;-117.188;2023-01-04T04:02:49;0.60;;;0.60;;
37847;SDS011;23688;33.130;-117.188;2023-01-04T04:05:17;0.40;;;0.40;;
37847;SDS011;23688;33.130;-117.188;2023-01-04T04:08:04;1.48;;;0.65;;
37847;SDS011;23688;33.130;-117.188;2023-01-04T04:10:53;0.80;;;0.60;;
37847;SDS011;23688;33.130;-117.188;2023-01-04T04:13:48;1.23;;;0.65;;
37847;SDS011;23688;33.130;-117.188;2023-01-04T04:16:15;5.72;;;0.90;;
37847;SDS011;23688;33.130;-117.188;2023-01-04T04:18:42;1.33;;;0.80;;
37847;SDS011;23688;33.130;-117.188;2023-01-04T04:21:08;1.02;;;0.55;;
37847;SDS011;23688;33.130;-117.188;2023-01-04T04:23:34;2.15;;;0.52;;
37847;SDS011;23688;33.130;-117.188;2023-01-04T04:26:02;0.82;;;0.70;;
37847;SDS011;23688;33.130;-117.188;2023-01-04T04:28:28;0.80;;;0.50;;
37847;SDS011;23688;33.130;-117.188;2023-01-04T04:30:55;3.10;;;0.40;;
37847;SDS011;23688;33.130;-117.188;2023-01-04T04:33:21;1.85;;;1.15;;
37847;SDS011;23688;33.130;-117.188;2023-01-04T04:35:51;2.25;;;0.70;;
37847;SDS011;23688;33.130;-117.188;2023-01-04T04:38:18;3.25;;;0.70;;
37847;SDS011;23688;33.130;-117.188;2023-01-04T04:40:45;0.63;;;0.52;;
37847;SDS011;23688;33.130;-117.188;2023-01-04T04:43:31;0.60;;;0.55;;
37847;SDS011;23688;33.130;-117.188;2023-01-04T04:45:58;0.57;;;0.52;;
37847;SDS011;23688;33.130;-117.188;2023-01-04T04:48:25;2.90;;;0.60;;
37847;SDS011;23688;33.130;-117.188;2023-01-04T04:50:51;3.78;;;0.65;;
37847;SDS011;23688;33.130;-117.188;2023-01-04T04:53:17;0.70;;;0.68;;
37847;SDS011;23688;33.130;-117.188;2023-01-04T04:55:44;0.90;;;0.80;;
37847;SDS011;23688;33.130;-117.188;2023-01-04T04:58:10;0.75;;;0.75;;
37847;SDS011;23688;33.130;-117.188;2023-01-04T05:00:38;2.25;;;0.75;;
37847;SDS011;23688;33.130;-117.188;2023-01-04T05:03:09;3.25;;;0.60;;
37847;SDS011;23688;33.130;-117.188;2023-01-04T05:05:35;1.42;;;0.85;;
37847;SDS011;23688;33.130;-117.188;2023-01-04T05:08:01;0.70;;;0.70;;
37847;SDS011;23688;33.130;-117.188;2023-01-04T05:10:28;1.98;;;1.10;;
37847;SDS011;23688;33.130;-117.188;2023-01-04T05:12:57;2.85;;;0.88;;
37847;SDS011;23688;33.130;-117.188;2023-01-04T05:15:27;1.48;;;0.73;;
37847;SDS011;23688;33.130;-117.188;2023-01-04T05:17:55;2.97;;;1.05;;
37847;SDS011;23688;33.130;-117.188;2023-01-04T05:20:21;2.17;;;1.02;;
37847;SDS011;23688;33.130;-117.188;2023-01-04T05:22:48;2.83;;;0.75;;
37847;SDS011;23688;33.130;-117.188;2023-01-04T05:25:14;1.38;;;0.80;;
37847;SDS011;23688;33.130;-117.188;2023-01-04T05:27:41;2.50;;;0.68;;
37847;SDS011;23688;33.130;-117.188;2023-01-04T05:30:08;3.83;;;0.93;;
37847;SDS011;23688;33.130;-117.188;2023-01-04T05:32:55;1.55;;;0.68;;
37847;SDS011;23688;33.130;-117.188;2023-01-04T05:35:21;2.30;;;0.65;;
37847;SDS011;23688;33.130;-117.188;2023-01-04T05:37:47;2.30;;;0.50;;
37847;SDS011;23688;33.130;-117.188;2023-01-04T05:40:14;0.90;;;0.63;;
37847;SDS011;23688;33.130;-117.188;2023-01-04T05:42:40;2.00;;;0.80;;
37847;SDS011;23688;33.130;-117.188;2023-01-04T05:45:07;1.38;;;0.77;;
37847;SDS011;23688;33.130;-117.188;2023-01-04T05:47:35;1.63;;;1.02;;
37847;SDS011;23688;33.130;-117.188;2023-01-04T05:50:02;6.10;;;2.05;;
37847;SDS011;23688;33.130;-117.188;2023-01-04T05:52:29;2.47;;;0.90;;
37847;SDS011;23688;33.130;-117.188;2023-01-04T05:54:55;2.80;;;0.90;;
37847;SDS011;23688;33.130;-117.188;2023-01-04T05:57:23;3.65;;;0.90;;
37847;SDS011;23688;33.130;-117.188;2023-01-04T05:59:50;2.10;;;0.77;;
37847;SDS011;23688;33.130;-117.188;2023-01-04T06:02:17;3.42;;;0.90;;
37847;SDS011;23688;33.130;-117.188;2023-01-04T06:04:47;1.40;;;0.70;;
37847;SDS011;23688;33.130;-117.188;2023-01-04T06:07:14;3.50;;;0.85;;
37847;SDS011;23688;33.130;-117.188;2023-01-04T06:09:40;0.80;;;0.70;;
37847;SDS011;23688;33.130;-117.188;2023-01-04T06:12:07;4.10;;;1.00;;
37847;SDS011;23688;33.130;-117.188;2023-01-04T06:14:33;3.42;;;1.00;;
37847;SDS011;23688;33.130;-117.188;2023-01-04T06:17:00;2.08;;;1.20;;
37847;SDS011;23688;33.130;-117.188;2023-01-04T06:19:26;2.15;;;0.90;;
37847;SDS011;23688;33.130;-117.188;2023-01-04T06:21:52;1.85;;;1.20;;
37847;SDS011;23688;33.130;-117.188;2023-01-04T06:24:19;1.15;;;1.00;;
37847;SDS011;23688;33.130;-117.188;2023-01-04T06:26:45;2.05;;;1.10;;
37847;SDS011;23688;33.130;-117.188;2023-01-04T06:29:12;1.13;;;1.02;;
37847;SDS011;23688;33.130;-117.188;2023-01-04T06:31:39;1.58;;;1.00;;
37847;SDS011;23688;33.130;-117.188;2023-01-04T06:34:05;1.77;;;0.95;;
37847;SDS011;23688;33.130;-117.188;2023-01-04T06:36:31;1.00;;;0.80;;
37847;SDS011;23688;33.130;-117.188;2023-01-04T06:38:58;2.10;;;1.00;;
37847;SDS011;23688;33.130;-117.188;2023-01-04T06:41:25;3.38;;;1.27;;
37847;SDS011;23688;33.130;-117.188;2023-01-04T06:43:55;1.10;;;0.90;;
37847;SDS011;23688;33.130;-117.188;2023-01-04T06:46:21;1.80;;;1.02;;
37847;SDS011;23688;33.130;-117.188;2023-01-04T06:48:47;1.23;;;0.93;;
37847;SDS011;23688;33.130;-117.188;2023-01-04T06:51:16;2.45;;;1.02;;
37847;SDS011;23688;33.130;-117.188;2023-01-04T06:53:42;1.00;;;0.82;;
37847;SDS011;23688;33.130;-117.188;2023-01-04T06:56:09;5.60;;;1.05;;
37847;SDS011;23688;33.130;-117.188;2023-01-04T06:58:36;1.50;;;0.73;;
37847;SDS011;23688;33.130;-117.188;2023-01-04T07:01:04;3.17;;;1.00;;
37847;SDS011;23688;33.130;-117.188;2023-01-04T07:03:31;0.75;;;0.75;;
37847;SDS011;23688;33.130;-117.188;2023-01-04T07:05:57;2.08;;;1.13;;
37847;SDS011;23688;33.130;-117.188;2023-01-04T07:08:24;3.17;;;0.90;;
37847;SDS011;23688;33.130;-117.188;2023-01-04T07:10:50;1.83;;;1.20;;
37847;SDS011;23688;33.130;-117.188;2023-01-04T07:13:17;1.75;;;0.85;;
37847;SDS011;23688;33.130;-117.188;2023-01-04T07:15:43;0.88;;;0.70;;
37847;SDS011;23688;33.130;-117.188;2023-01-04T07:18:09;0.95;;;0.85;;
37847;SDS011;23688;33.130;-117.188;2023-01-04T07:20:36;3.22;;;0.52;;
37847;SDS011;23688;33.130;-117.188;2023-01-04T07:23:04;0.90;;;0.55;;
37847;SDS011;23688;33.130;-117.188;2023-01-04T07:25:31;1.02;;;0.73;;
37847;SDS011;23688;33.130;-117.188;2023-01-04T07:27:58;3.20;;;0.70;;
37847;SDS011;23688;33.130;-117.188;2023-01-04T07:30:24;2.22;;;0.65;;
37847;SDS011;23688;33.130;-117.188;2023-01-04T07:32:51;0.50;;;0.50;;
37847;SDS011;23688;33.130;-117.188;2023-01-04T07:35:18;2.50;;;0.60;;
37847;SDS011;23688;33.130;-117.188;2023-01-04T07:37:45;2.53;;;0.50;;
37847;SDS011;23688;33.130;-117.188;2023-01-04T07:40:12;1.65;;;0.40;;
37847;SDS011;23688;33.130;-117.188;2023-01-04T07:42:39;0.85;;;0.47;;
37847;SDS011;23688;33.130;-117.188;2023-01-04T07:45:05;1.45;;;0.95;;
37847;SDS011;23688;33.130;-117.188;2023-01-04T07:47:33;3.10;;;0.47;;
37847;SDS011;23688;33.130;-117.188;2023-01-04T07:49:59;2.40;;;0.60;;
37847;SDS011;23688;33.130;-117.188;2023-01-04T07:52:27;0.55;;;0.55;;
37847;SDS011;23688;33.130;-117.188;2023-01-04T07:54:53;2.38;;;0.30;;
37847;SDS011;23688;33.130;-117.188;2023-01-04T07:57:20;0.57;;;0.40;;
37847;SDS011;23688;33.130;-117.188;2023-01-04T07:59:46;2.10;;;0.47;;
37847;SDS011;23688;33.130;-117.188;2023-01-04T08:02:12;1.13;;;0.30;;
37847;SDS011;23688;33.130;-117.188;2023-01-04T08:04:38;0.50;;;0.50;;
37847;SDS011;23688;33.130;-117.188;2023-01-04T08:07:05;1.30;;;0.52;;
37847;SDS011;23688;33.130;-117.188;2023-01-04T08:09:31;0.43;;;0.30;;
37847;SDS011;23688;33.130;-117.188;2023-01-04T08:11:58;0.75;;;0.47;;
37847;SDS011;23688;33.130;-117.188;2023-01-04T08:14:24;5.40;;;0.45;;
37847;SDS011;23688;33.130;-117.188;2023-01-04T08:16:51;0.93;;;0.30;;
37847;SDS011;23688;33.130;-117.188;2023-01-04T08:19:19;3.05;;;0.40;;
37847;SDS011;23688;33.130;-117.188;2023-01-04T08:24:14;0.45;;;0.40;;
37847;SDS011;23688;33.130;-117.188;2023-01-04T08:26:43;2.40;;;0.35;;
37847;SDS011;23688;33.130;-117.188;2023-01-04T08:29:10;0.50;;;0.40;;
37847;SDS011;23688;33.130;-117.188;2023-01-04T08:31:37;1.80;;;0.45;;
37847;SDS011;23688;33.130;-117.188;2023-01-04T08:34:04;1.27;;;0.43;;
37847;SDS011;23688;33.130;-117.188;2023-01-04T08:36:50;3.22;;;0.50;;
37847;SDS011;23688;33.130;-117.188;2023-01-04T08:39:17;2.08;;;0.65;;
37847;SDS011;23688;33.130;-117.188;2023-01-04T08:41:45;1.73;;;0.57;;
37847;SDS011;23688;33.130;-117.188;2023-01-04T08:44:22;1.80;;;0.32;;
37847;SDS011;23688;33.130;-117.188;2023-01-04T08:46:50;1.92;;;0.55;;
37847;SDS011;23688;33.130;-117.188;2023-01-04T08:49:17;0.70;;;0.30;;
37847;SDS011;23688;33.130;-117.188;2023-01-04T08:51:44;2.10;;;0.55;;
37847;SDS011;23688;33.130;-117.188;2023-01-04T08:54:11;3.60;;;0.63;;
37847;SDS011;23688;33.130;-117.188;2023-01-04T08:56:38;1.70;;;0.60;;
37847;SDS011;23688;33.130;-117.188;2023-01-04T08:59:05;0.60;;;0.60;;
37847;SDS011;23688;33.130;-117.188;2023-01-04T09:01:32;0.85;;;0.52;;
37847;SDS011;23688;33.130;-117.188;2023-01-04T09:03:59;3.50;;;0.73;;
37847;SDS011;23688;33.130;-117.188;2023-01-04T09:06:26;3.40;;;0.60;;
37847;SDS011;23688;33.130;-117.188;2023-01-04T09:08:52;0.50;;;0.47;;
37847;SDS011;23688;33.130;-117.188;2023-01-04T09:11:21;7.03;;;1.23;;
37847;SDS011;23688;33.130;-117.188;2023-01-04T09:13:52;0.93;;;0.50;;
37847;SDS011;23688;33.130;-117.188;2023-01-04T09:16:21;1.23;;;0.70;;
37847;SDS011;23688;33.130;-117.188;2023-01-04T09:18:48;2.00;;;0.60;;
37847;SDS011;23688;33.130;-117.188;2023-01-04T09:21:15;1.05;;;0.60;;
37847;SDS011;23688;33.130;-117.188;2023-01-04T09:23:44;1.38;;;0.57;;
37847;SDS011;23688;33.130;-117.188;2023-01-04T09:29:32;0.75;;;0.70;;
37847;SDS011;23688;33.130;-117.188;2023-01-04T09:31:59;2.08;;;0.60;;
37847;SDS011;23688;33.130;-117.188;2023-01-04T09:34:25;1.77;;;0.70;;
37847;SDS011;23688;33.130;-117.188;2023-01-04T09:36:51;1.40;;;0.70;;
37847;SDS011;23688;33.130;-117.188;2023-01-04T09:39:18;2.92;;;0.70;;
37847;SDS011;23688;33.130;-117.188;2023-01-04T09:41:46;2.35;;;0.80;;
37847;SDS011;23688;33.130;-117.188;2023-01-04T09:44:38;3.95;;;0.75;;
37847;SDS011;23688;33.130;-117.188;2023-01-04T09:50:17;1.98;;;0.77;;
37847;SDS011;23688;33.130;-117.188;2023-01-04T09:53:03;1.73;;;0.95;;
37847;SDS011;23688;33.130;-117.188;2023-01-04T09:55:33;1.15;;;0.93;;
37847;SDS011;23688;33.130;-117.188;2023-01-04T09:58:16;1.13;;;0.80;;
37847;SDS011;23688;33.130;-117.188;2023-01-04T10:06:26;2.42;;;0.77;;
37847;SDS011;23688;33.130;-117.188;2023-01-04T10:08:55;0.60;;;0.60;;
37847;SDS011;23688;33.130;-117.188;2023-01-04T10:11:40;2.38;;;0.60;;
37847;SDS011;23688;33.130;-117.188;2023-01-04T10:17:19;1.90;;;0.60;;
37847;SDS011;23688;33.130;-117.188;2023-01-04T10:36:21;0.55;;;0.40;;
37847;SDS011;23688;33.130;-117.188;2023-01-04T10:38:58;1.95;;;0.40;;
37847;SDS011;23688;33.130;-117.188;2023-01-04T10:41:28;0.60;;;0.60;;
37847;SDS011;23688;33.130;-117.188;2023-01-04T10:44:18;1.17;;;0.43;;
37847;SDS011;23688;33.130;-117.188;2023-01-04T10:52:02;2.70;;;0.60;;
37847;SDS011;23688;33.130;-117.188;2023-01-04T10:54:38;2.20;;;0.55;;
37847;SDS011;23688;33.130;-117.188;2023-01-04T10:57:16;0.93;;;0.40;;
37847;SDS011;23688;33.130;-117.188;2023-01-04T11:00:03;0.90;;;0.40;;
37847;SDS011;23688;33.130;-117.188;2023-01-04T11:02:43;0.65;;;0.40;;
37847;SDS011;23688;33.130;-117.188;2023-01-04T11:05:28;1.20;;;0.40;;
37847;SDS011;23688;33.130;-117.188;2023-01-04T11:08:07;1.95;;;0.20;;
37847;SDS011;23688;33.130;-117.188;2023-01-04T11:10:46;0.65;;;0.20;;
37847;SDS011;23688;33.130;-117.188;2023-01-04T11:13:26;0.50;;;0.30;;
37847;SDS011;23688;33.130;-117.188;2023-01-04T11:15:53;0.43;;;0.35;;
37847;SDS011;23688;33.130;-117.188;2023-01-04T11:18:20;4.93;;;0.43;;
37847;SDS011;23688;33.130;-117.188;2023-01-04T11:20:46;2.65;;;0.40;;
37847;SDS011;23688;33.130;-117.188;2023-01-04T11:23:15;2.20;;;0.47;;
37847;SDS011;23688;33.130;-117.188;2023-01-04T11:25:51;0.30;;;0.30;;
37847;SDS011;23688;33.130;-117.188;2023-01-04T11:31:02;1.13;;;0.35;;
37847;SDS011;23688;33.130;-117.188;2023-01-04T11:33:30;0.75;;;0.43;;
37847;SDS011;23688;33.130;-117.188;2023-01-04T11:36:51;0.93;;;0.52;;
37847;SDS011;23688;33.130;-117.188;2023-01-04T11:41:58;0.30;;;0.10;;
37847;SDS011;23688;33.130;-117.188;2023-01-04T11:44:30;1.30;;;0.22;;
37847;SDS011;23688;33.130;-117.188;2023-01-04T11:49:44;0.77;;;0.25;;
37847;SDS011;23688;33.130;-117.188;2023-01-04T11:52:32;1.58;;;0.30;;
37847;SDS011;23688;33.130;-117.188;2023-01-04T11:58:04;3.08;;;0.40;;
37847;SDS011;23688;33.130;-117.188;2023-01-04T12:00:49;0.22;;;0.20;;
37847;SDS011;23688;33.130;-117.188;2023-01-04T12:05:54;0.60;;;0.20;;
37847;SDS011;23688;33.130;-117.188;2023-01-04T12:08:33;3.20;;;0.90;;
37847;SDS011;23688;33.130;-117.188;2023-01-04T12:11:03;2.15;;;0.20;;
37847;SDS011;23688;33.130;-117.188;2023-01-04T12:13:33;0.38;;;0.20;;
37847;SDS011;23688;33.130;-117.188;2023-01-04T12:18:46;0.52;;;0.25;;
37847;SDS011;23688;33.130;-117.188;2023-01-04T12:21:21;0.73;;;0.30;;
37847;SDS011;23688;33.130;-117.188;2023-01-04T12:23:51;2.90;;;0.35;;
37847;SDS011;23688;33.130;-117.188;2023-01-04T12:26:18;0.65;;;0.10;;
37847;SDS011;23688;33.130;-117.188;2023-01-04T12:31:33;0.75;;;0.35;;
37847;SDS011;23688;33.130;-117.188;2023-01-04T12:36:54;0.60;;;0.40;;
37847;SDS011;23688;33.130;-117.188;2023-01-04T12:52:41;2.47;;;0.75;;
37847;SDS011;23688;33.130;-117.188;2023-01-04T12:57:58;0.97;;;0.33;;
37847;SDS011;23688;33.130;-117.188;2023-01-04T13:08:21;1.20;;;0.50;;
37847;SDS011;23688;33.130;-117.188;2023-01-04T13:10:48;3.47;;;0.35;;
37847;SDS011;23688;33.130;-117.188;2023-01-04T13:23:56;2.88;;;0.60;;
37847;SDS011;23688;33.130;-117.188;2023-01-04T13:26:40;0.68;;;0.22;;
37847;SDS011;23688;33.130;-117.188;2023-01-04T13:34:30;0.65;;;0.45;;
37847;SDS011;23688;33.130;-117.188;2023-01-04T13:39:42;0.68;;;0.50;;
37847;SDS011;23688;33.130;-117.188;2023-01-04T13:42:21;1.02;;;0.43;;
37847;SDS011;23688;33.130;-117.188;2023-01-04T13:45:01;2.63;;;0.50;;
37847;SDS011;23688;33.130;-117.188;2023-01-04T13:47:41;2.67;;;0.80;;
37847;SDS011;23688;33.130;-117.188;2023-01-04T13:52:48;0.88;;;0.30;;
37847;SDS011;23688;33.130;-117.188;2023-01-04T13:55:20;1.13;;;0.47;;
37847;SDS011;23688;33.130;-117.188;2023-01-04T14:00:24;1.95;;;0.40;;
37847;SDS011;23688;33.130;-117.188;2023-01-04T14:03:55;4.20;;;0.50;;
37847;SDS011;23688;33.130;-117.188;2023-01-04T14:05:54;1.40;;;0.30;;
37847;SDS011;23688;33.130;-117.188;2023-01-04T14:08:34;0.63;;;0.32;;
37847;SDS011;23688;33.130;-117.188;2023-01-04T14:11:15;0.98;;;0.30;;
37847;SDS011;23688;33.130;-117.188;2023-01-04T14:14:03;2.92;;;0.50;;
37847;SDS011;23688;33.130;-117.188;2023-01-04T14:16:40;0.63;;;0.30;;
37847;SDS011;23688;33.130;-117.188;2023-01-04T14:19:25;1.77;;;0.40;;
37847;SDS011;23688;33.130;-117.188;2023-01-04T14:22:01;1.63;;;0.40;;
37847;SDS011;23688;33.130;-117.188;2023-01-04T14:24:42;0.68;;;0.43;;
37847;SDS011;23688;33.130;-117.188;2023-01-04T14:30:14;0.95;;;0.45;;
37847;SDS011;23688;33.130;-117.188;2023-01-04T14:35:23;1.25;;;0.40;;
37847;SDS011;23688;33.130;-117.188;2023-01-04T14:37:51;1.40;;;0.30;;
37847;SDS011;23688;33.130;-117.188;2023-01-04T14:40:23;1.08;;;0.30;;
37847;SDS011;23688;33.130;-117.188;2023-01-04T14:42:52;0.55;;;0.40;;
37847;SDS011;23688;33.130;-117.188;2023-01-04T14:45:19;1.85;;;0.20;;
37847;SDS011;23688;33.130;-117.188;2023-01-04T14:47:45;1.88;;;0.38;;
37847;SDS011;23688;33.130;-117.188;2023-01-04T14:50:12;0.77;;;0.40;;
37847;SDS011;23688;33.130;-117.188;2023-01-04T14:52:39;0.52;;;0.20;;
37847;SDS011;23688;33.130;-117.188;2023-01-04T14:55:06;0.63;;;0.30;;
37847;SDS011;23688;33.130;-117.188;2023-01-04T14:57:32;0.22;;;0.22;;
37847;SDS011;23688;33.130;-117.188;2023-01-04T15:00:08;0.55;;;0.30;;
37847;SDS011;23688;33.130;-117.188;2023-01-04T15:02:38;1.08;;;0.20;;
37847;SDS011;23688;33.130;-117.188;2023-01-04T15:05:04;1.30;;;0.13;;
37847;SDS011;23688;33.130;-117.188;2023-01-04T15:07:32;0.35;;;0.20;;
37847;SDS011;23688;33.130;-117.188;2023-01-04T15:10:01;0.25;;;0.20;;
37847;SDS011;23688;33.130;-117.188;2023-01-04T15:12:28;4.75;;;0.30;;
37847;SDS011;23688;33.130;-117.188;2023-01-04T15:14:54;0.57;;;0.35;;
37847;SDS011;23688;33.130;-117.188;2023-01-04T15:17:20;0.10;;;0.10;;
37847;SDS011;23688;33.130;-117.188;2023-01-04T15:19:47;0.10;;;0.10;;
37847;SDS011;23688;33.130;-117.188;2023-01-04T15:22:13;2.38;;;0.30;;
37847;SDS011;23688;33.130;-117.188;2023-01-04T15:24:39;2.90;;;0.25;;
37847;SDS011;23688;33.130;-117.188;2023-01-04T15:27:05;0.63;;;0.20;;
37847;SDS011;23688;33.130;-117.188;2023-01-04T15:29:32;1.85;;;0.10;;
37847;SDS011;23688;33.130;-117.188;2023-01-04T15:31:59;0.20;;;0.20;;
37847;SDS011;23688;33.130;-117.188;2023-01-04T15:34:25;1.85;;;0.30;;
37847;SDS011;23688;33.130;-117.188;2023-01-04T15:36:51;0.00;;;0.00;;
37847;SDS011;23688;33.130;-117.188;2023-01-04T15:39:17;1.30;;;0.80;;
37847;SDS011;23688;33.130;-117.188;2023-01-04T15:41:44;0.55;;;0.20;;
37847;SDS011;23688;33.130;-117.188;2023-01-04T15:44:28;0.90;;;0.20;;
37847;SDS011;23688;33.130;-117.188;2023-01-04T15:46:55;0.98;;;0.17;;
37847;SDS011;23688;33.130;-117.188;2023-01-04T15:49:23;1.45;;;0.20;;
37847;SDS011;23688;33.130;-117.188;2023-01-04T15:51:49;0.25;;;0.20;;
37847;SDS011;23688;33.130;-117.188;2023-01-04T15:54:16;0.25;;;0.10;;
37847;SDS011;23688;33.130;-117.188;2023-01-04T15:56:42;1.25;;;0.20;;
37847;SDS011;23688;33.130;-117.188;2023-01-04T15:59:09;0.38;;;0.05;;
37847;SDS011;23688;33.130;-117.188;2023-01-04T16:01:35;0.00;;;0.00;;
37847;SDS011;23688;33.130;-117.188;2023-01-04T16:04:04;2.92;;;0.10;;
37847;SDS011;23688;33.130;-117.188;2023-01-04T16:06:31;0.10;;;0.10;;
37847;SDS011;23688;33.130;-117.188;2023-01-04T16:08:57;0.17;;;0.13;;
37847;SDS011;23688;33.130;-117.188;2023-01-04T16:11:24;0.10;;;0.10;;
37847;SDS011;23688;33.130;-117.188;2023-01-04T16:13:51;0.08;;;0.08;;
37847;SDS011;23688;33.130;-117.188;2023-01-04T16:16:18;0.00;;;0.00;;
37847;SDS011;23688;33.130;-117.188;2023-01-04T16:21:14;0.00;;;0.00;;
37847;SDS011;23688;33.130;-117.188;2023-01-04T16:23:42;0.10;;;0.10;;
37847;SDS011;23688;33.130;-117.188;2023-01-04T16:26:13;0.10;;;0.10;;
37847;SDS011;23688;33.130;-117.188;2023-01-04T16:28:39;2.92;;;0.20;;
37847;SDS011;23688;33.130;-117.188;2023-01-04T16:31:06;0.22;;;0.10;;
37847;SDS011;23688;33.130;-117.188;2023-01-04T16:33:33;2.25;;;0.15;;
37847;SDS011;23688;33.130;-117.188;2023-01-04T16:36:05;0.77;;;0.10;;
37847;SDS011;23688;33.130;-117.188;2023-01-04T16:38:36;0.10;;;0.10;;
37847;SDS011;23688;33.130;-117.188;2023-01-04T16:41:05;1.27;;;0.20;;
37847;SDS011;23688;33.130;-117.188;2023-01-04T16:43:40;0.10;;;0.10;;
37847;SDS011;23688;33.130;-117.188;2023-01-04T16:46:19;0.80;;;0.20;;
37847;SDS011;23688;33.130;-117.188;2023-01-04T16:48:54;0.10;;;0.10;;
37847;SDS011;23688;33.130;-117.188;2023-01-04T16:51:22;0.10;;;0.10;;
37847;SDS011;23688;33.130;-117.188;2023-01-04T16:53:50;0.10;;;0.08;;
37847;SDS011;23688;33.130;-117.188;2023-01-04T16:56:18;0.10;;;0.10;;
37847;SDS011;23688;33.130;-117.188;2023-01-04T17:01:17;0.17;;;0.10;;
37847;SDS011;23688;33.130;-117.188;2023-01-04T17:03:46;0.20;;;0.10;;
37847;SDS011;23688;33.130;-117.188;2023-01-04T17:06:15;0.30;;;0.20;;
37847;SDS011;23688;33.130;-117.188;2023-01-04T17:08:44;0.32;;;0.17;;